createdAt,value
2023-04-16T00:01:47.523Z,4.88
2023-04-16T00:04:15.124Z,5.20
2023-04-16T00:06:42.701Z,5.05
2023-04-16T00:09:10.767Z,4.63
2023-04-16T00:11:38.226Z,5.18
2023-04-16T00:14:05.736Z,4.93
2023-04-16T00:16:33.292Z,4.60
2023-04-16T00:19:00.928Z,6.32
2023-04-16T00:21:28.881Z,6.53
2023-04-16T00:23:56.262Z,6.10
2023-04-16T00:26:23.535Z,4.55
2023-04-16T00:28:51.222Z,6.28
2023-04-16T00:31:18.593Z,6.90
2023-04-16T00:33:45.953Z,5.82
2023-04-16T00:36:13.249Z,7.10
2023-04-16T00:38:40.488Z,5.55
2023-04-16T00:41:07.742Z,6.18
2023-04-16T00:43:35.096Z,5.88
2023-04-16T00:46:08.851Z,5.80
2023-04-16T00:48:39.861Z,6.00
2023-04-16T00:51:09.321Z,6.10
2023-04-16T00:53:37.949Z,5.68
2023-04-16T00:56:07.523Z,6.20
2023-04-16T00:58:35.755Z,7.78
2023-04-16T01:01:03.330Z,5.88
2023-04-16T01:03:51.517Z,6.25
2023-04-16T01:06:19.814Z,7.32
2023-04-16T01:08:48.720Z,6.32
2023-04-16T01:11:16.428Z,6.10
2023-04-16T01:13:43.854Z,7.15
2023-04-16T01:16:14.760Z,5.82
2023-04-16T01:18:42.617Z,6.80
2023-04-16T01:21:11.144Z,5.88
2023-04-16T01:23:39.492Z,5.60
2023-04-16T01:26:06.816Z,7.30
2023-04-16T01:28:35.149Z,6.15
2023-04-16T01:31:02.462Z,7.82
2023-04-16T01:33:56.160Z,7.20
2023-04-16T01:36:23.489Z,6.45
2023-04-16T01:38:50.807Z,6.90
2023-04-16T01:41:18.088Z,7.57
2023-04-16T01:43:45.474Z,8.15
2023-04-16T01:46:24.742Z,7.75
2023-04-16T01:48:54.733Z,7.40
2023-04-16T01:51:22.637Z,6.60
2023-04-16T01:53:51.199Z,7.00
2023-04-16T01:56:19.850Z,7.70
2023-04-16T01:58:53.523Z,6.85
2023-04-16T02:01:21.208Z,7.15
2023-04-16T02:03:49.699Z,6.90
2023-04-16T02:06:17.083Z,7.43
2023-04-16T02:08:44.675Z,7.93
2023-04-16T02:11:11.932Z,7.90
2023-04-16T02:13:40.440Z,7.80
2023-04-16T02:16:08.922Z,6.25
2023-04-16T02:18:55.030Z,7.80
2023-04-16T02:21:24.281Z,6.60
2023-04-16T02:23:53.009Z,6.93
2023-04-16T02:26:26.636Z,6.72
2023-04-16T02:28:56.192Z,6.68
2023-04-16T02:31:28.846Z,6.78
2023-04-16T02:33:57.882Z,7.53
2023-04-16T02:36:25.625Z,7.22
2023-04-16T02:38:55.160Z,7.20
2023-04-16T02:41:22.957Z,6.85
2023-04-16T02:43:50.766Z,8.27
2023-04-16T02:46:18.243Z,8.20
2023-04-16T02:48:45.896Z,7.10
2023-04-16T02:51:13.746Z,10.35
2023-04-16T02:53:45.482Z,9.13
2023-04-16T02:56:13.460Z,8.45
2023-04-16T02:58:40.836Z,8.77
2023-04-16T03:01:08.577Z,10.10
2023-04-16T03:03:36.146Z,9.48
2023-04-16T03:06:03.546Z,9.38
2023-04-16T03:08:30.760Z,9.80
2023-04-16T03:10:58.009Z,11.75
2023-04-16T03:13:25.351Z,11.13
2023-04-16T03:15:52.705Z,10.63
2023-04-16T03:18:20.355Z,10.45
2023-04-16T03:20:54.055Z,10.63
2023-04-16T03:23:21.420Z,9.85
2023-04-16T03:25:48.711Z,9.65
2023-04-16T03:28:18.664Z,11.55
2023-04-16T03:30:55.642Z,10.60
2023-04-16T03:33:22.997Z,11.25
2023-04-16T03:36:00.905Z,11.00
2023-04-16T03:38:31.156Z,11.15
2023-04-16T03:41:05.149Z,11.52
2023-04-16T03:43:35.120Z,12.63
2023-04-16T03:46:02.575Z,12.60
2023-04-16T03:48:29.958Z,12.98
2023-04-16T03:50:58.278Z,13.10
2023-04-16T03:53:25.742Z,13.43
2023-04-16T03:55:53.260Z,13.38
2023-04-16T03:58:21.966Z,15.80
2023-04-16T04:00:49.313Z,14.43
2023-04-16T04:03:18.558Z,14.60
2023-04-16T04:05:48.565Z,15.32
2023-04-16T04:08:21.355Z,17.45
2023-04-16T04:10:48.671Z,16.48
2023-04-16T04:13:16.188Z,17.75
2023-04-16T04:15:45.028Z,16.58
2023-04-16T04:18:13.419Z,15.32
2023-04-16T04:20:41.365Z,16.40
2023-04-16T04:23:09.203Z,17.67
2023-04-16T04:25:36.861Z,18.42
2023-04-16T04:28:04.515Z,14.00
2023-04-16T04:30:36.054Z,17.95
2023-04-16T04:33:04.149Z,17.15
2023-04-16T04:35:31.561Z,19.05
2023-04-16T04:37:59.718Z,15.82
2023-04-16T04:40:28.496Z,17.42
2023-04-16T04:43:01.024Z,15.85
2023-04-16T04:45:30.364Z,15.35
2023-04-16T04:47:59.406Z,16.52
2023-04-16T04:50:26.793Z,15.30
2023-04-16T04:52:54.040Z,16.98
2023-04-16T04:55:22.484Z,15.15
2023-04-16T04:57:52.222Z,17.17
2023-04-16T05:00:21.256Z,15.65
2023-04-16T05:02:54.008Z,17.83
2023-04-16T05:05:21.784Z,16.58
2023-04-16T05:07:50.581Z,17.98
2023-04-16T05:10:17.915Z,14.63
2023-04-16T05:12:48.918Z,16.05
2023-04-16T05:15:18.884Z,17.20
2023-04-16T05:17:46.466Z,16.50
2023-04-16T05:20:13.858Z,17.85
2023-04-16T05:22:41.448Z,16.70
2023-04-16T05:25:09.308Z,16.83
2023-04-16T05:27:37.536Z,17.85
2023-04-16T05:30:05.886Z,15.02
2023-04-16T05:32:34.471Z,15.25
2023-04-16T05:35:01.683Z,16.13
2023-04-16T05:37:30.537Z,16.77
2023-04-16T05:39:57.893Z,17.17
2023-04-16T05:42:25.172Z,18.75
2023-04-16T05:44:53.352Z,15.77
2023-04-16T05:47:25.805Z,15.68
2023-04-16T05:49:53.212Z,18.42
2023-04-16T05:52:20.711Z,17.60
2023-04-16T05:54:47.990Z,18.48
2023-04-16T05:57:15.879Z,17.42
2023-04-16T05:59:43.321Z,15.50
2023-04-16T06:02:12.019Z,18.80
2023-04-16T06:04:39.451Z,18.73
2023-04-16T06:07:07.508Z,18.08
2023-04-16T06:09:36.212Z,18.65
2023-04-16T06:12:04.001Z,20.55
2023-04-16T06:14:31.205Z,17.85
2023-04-16T06:16:58.481Z,17.77
2023-04-16T06:19:25.750Z,21.10
2023-04-16T06:21:53.813Z,21.33
2023-04-16T06:24:22.761Z,20.15
2023-04-16T06:26:50.215Z,19.98
2023-04-16T06:29:17.510Z,18.98
2023-04-16T06:31:44.954Z,17.65
2023-04-16T06:34:12.570Z,19.13
2023-04-16T06:36:39.857Z,18.88
2023-04-16T06:39:07.190Z,18.60
2023-04-16T06:41:34.640Z,20.25
2023-04-16T06:44:02.027Z,16.30
2023-04-16T06:46:39.979Z,19.67
2023-04-16T06:49:07.623Z,16.20
2023-04-16T06:51:36.157Z,16.45
2023-04-16T06:54:04.308Z,17.77
2023-04-16T06:56:32.290Z,15.73
2023-04-16T06:59:00.971Z,18.17
2023-04-16T07:01:31.116Z,18.30
2023-04-16T07:03:59.324Z,17.33
2023-04-16T07:06:27.210Z,18.40
2023-04-16T07:08:54.432Z,15.90
2023-04-16T07:11:22.471Z,13.13
2023-04-16T07:13:51.211Z,16.60
2023-04-16T07:16:18.760Z,16.52
2023-04-16T07:18:46.538Z,15.77
2023-04-16T07:21:13.991Z,17.38
2023-04-16T07:23:41.811Z,17.80
2023-04-16T07:26:09.172Z,14.98
2023-04-16T07:28:47.842Z,14.55
2023-04-16T07:31:15.218Z,17.75
2023-04-16T07:33:44.573Z,15.68
2023-04-16T07:36:13.199Z,15.82
2023-04-16T07:38:40.593Z,13.57
2023-04-16T07:41:08.428Z,15.90
2023-04-16T07:43:36.104Z,15.38
2023-04-16T07:46:03.440Z,14.05
2023-04-16T07:48:30.718Z,15.75
2023-04-16T07:50:58.598Z,16.70
2023-04-16T07:53:26.068Z,13.95
2023-04-16T07:55:53.814Z,14.32
2023-04-16T07:58:21.178Z,17.00
2023-04-16T08:00:50.379Z,15.20
2023-04-16T08:03:18.497Z,14.93
2023-04-16T08:05:46.043Z,15.20
2023-04-16T08:08:14.421Z,17.08
2023-04-16T08:10:41.950Z,15.50
2023-04-16T08:13:09.702Z,15.63
2023-04-16T08:15:38.119Z,15.68
2023-04-16T08:18:07.093Z,15.95
2023-04-16T08:20:34.595Z,17.23
2023-04-16T08:23:01.804Z,15.70
2023-04-16T08:25:29.337Z,17.45
2023-04-16T08:27:56.664Z,15.68
2023-04-16T08:30:24.094Z,15.57
2023-04-16T08:32:51.635Z,16.40
2023-04-16T08:35:18.911Z,15.27
2023-04-16T08:37:48.312Z,18.10
2023-04-16T08:40:17.655Z,18.67
2023-04-16T08:43:15.582Z,18.58
2023-04-16T08:45:48.617Z,15.55
2023-04-16T08:48:16.276Z,17.40
2023-04-16T08:50:46.778Z,17.73
2023-04-16T08:53:28.531Z,18.35
2023-04-16T08:56:03.765Z,19.55
2023-04-16T08:58:37.962Z,20.00
2023-04-16T09:01:06.863Z,20.42
2023-04-16T09:03:36.677Z,19.23
2023-04-16T09:06:07.515Z,18.45
2023-04-16T09:08:36.229Z,17.95
2023-04-16T09:11:04.858Z,18.48
2023-04-16T09:13:32.769Z,21.58
2023-04-16T09:16:01.210Z,20.98
2023-04-16T09:18:31.107Z,21.80
2023-04-16T09:20:59.608Z,20.17
2023-04-16T09:23:26.932Z,21.90
2023-04-16T09:25:57.107Z,18.40
2023-04-16T09:28:45.932Z,23.73
2023-04-16T09:31:20.431Z,20.95
2023-04-16T09:34:09.665Z,18.63
2023-04-16T09:36:37.326Z,21.15
2023-04-16T09:39:04.753Z,20.40
2023-04-16T09:41:36.280Z,23.80
2023-04-16T09:44:05.715Z,21.85
2023-04-16T09:46:45.192Z,20.48
2023-04-16T09:49:18.888Z,20.90
2023-04-16T09:51:52.802Z,21.13
2023-04-16T09:54:21.364Z,23.25
2023-04-16T09:56:48.703Z,21.17
2023-04-16T09:59:24.406Z,19.90
2023-04-16T10:02:14.583Z,20.55
2023-04-16T10:04:54.885Z,19.98
2023-04-16T10:07:23.344Z,20.30
2023-04-16T10:09:52.601Z,21.65
2023-04-16T10:12:22.275Z,21.65
2023-04-16T10:14:50.433Z,17.95
2023-04-16T10:17:20.395Z,20.02
2023-04-16T10:19:49.900Z,20.60
2023-04-16T10:22:19.636Z,19.90
2023-04-16T10:24:49.818Z,21.88
2023-04-16T10:27:17.256Z,23.58
2023-04-16T10:29:45.935Z,20.25
2023-04-16T10:32:21.895Z,22.10
2023-04-16T10:34:55.822Z,20.13
2023-04-16T10:37:32.320Z,19.08
2023-04-16T10:40:28.178Z,19.17
2023-04-16T10:43:02.002Z,19.10
2023-04-16T10:45:38.577Z,19.67
2023-04-16T10:48:10.197Z,19.65
2023-04-16T10:50:41.530Z,20.73
2023-04-16T10:53:29.775Z,23.63
2023-04-16T10:56:06.488Z,19.85
2023-04-16T10:58:37.228Z,19.73
2023-04-16T11:01:24.428Z,20.38
2023-04-16T11:03:55.168Z,19.50
2023-04-16T11:06:29.567Z,21.80
2023-04-16T11:08:56.932Z,21.17
2023-04-16T11:11:38.608Z,19.23
2023-04-16T11:14:10.936Z,20.98
2023-04-16T11:16:42.602Z,21.40
2023-04-16T11:19:20.431Z,20.10
2023-04-16T11:21:51.694Z,20.60
2023-04-16T11:24:18.971Z,20.42
2023-04-16T11:26:53.944Z,19.52
2023-04-16T11:29:21.458Z,21.42
2023-04-16T11:31:54.035Z,20.73
2023-04-16T11:34:22.766Z,19.33
2023-04-16T11:36:52.449Z,19.55
2023-04-16T11:39:20.010Z,19.95
2023-04-16T11:41:52.504Z,18.35
2023-04-16T11:44:38.354Z,18.52
2023-04-16T11:47:08.341Z,18.05
2023-04-16T11:49:35.720Z,20.08
2023-04-16T11:52:03.030Z,16.83
2023-04-16T11:54:34.877Z,19.23
2023-04-16T11:57:04.800Z,20.10
2023-04-16T11:59:33.374Z,17.25
2023-04-16T12:02:00.819Z,17.63
2023-04-16T12:04:29.447Z,18.10
2023-04-16T12:07:14.630Z,16.90
2023-04-16T12:09:44.975Z,15.18
2023-04-16T12:12:31.664Z,18.85
2023-04-16T12:15:05.398Z,16.35
2023-04-16T12:17:36.389Z,14.15
2023-04-16T12:20:16.230Z,14.07
2023-04-16T12:22:49.666Z,16.30
2023-04-16T12:25:20.647Z,15.98
2023-04-16T12:27:56.407Z,15.63
2023-04-16T12:30:26.834Z,16.02
2023-04-16T12:33:19.679Z,15.02
2023-04-16T12:35:47.392Z,15.30
2023-04-16T12:38:15.509Z,14.13
2023-04-16T12:40:43.207Z,13.48
2023-04-16T12:43:13.817Z,13.57
2023-04-16T12:45:41.668Z,14.57
2023-04-16T12:48:12.031Z,13.18
2023-04-16T12:50:39.803Z,13.68
2023-04-16T12:53:07.265Z,11.95
2023-04-16T12:55:36.058Z,12.93
2023-04-16T12:58:03.848Z,12.43
2023-04-16T13:00:34.263Z,12.75
2023-04-16T13:03:01.801Z,13.85
2023-04-16T13:05:29.450Z,14.48
2023-04-16T13:07:57.280Z,12.85
2023-04-16T13:10:27.896Z,13.82
2023-04-16T13:12:55.476Z,12.50
2023-04-16T13:15:23.456Z,12.32
2023-04-16T13:17:51.400Z,11.40
2023-04-16T13:20:18.704Z,14.27
2023-04-16T13:22:46.211Z,12.57
2023-04-16T13:25:13.420Z,13.52
2023-04-16T13:27:41.386Z,14.68
2023-04-16T13:30:10.638Z,12.75
2023-04-16T13:32:38.774Z,12.07
2023-04-16T13:35:06.528Z,13.30
2023-04-16T13:37:34.955Z,13.35
2023-04-16T13:40:02.413Z,13.00
2023-04-16T13:42:29.752Z,13.98
2023-04-16T13:45:01.348Z,11.77
2023-04-16T13:47:29.166Z,11.25
2023-04-16T13:50:04.584Z,12.48
2023-04-16T13:52:31.862Z,11.60
2023-04-16T13:55:00.634Z,13.63
2023-04-16T13:57:36.443Z,13.57
2023-04-16T14:00:04.674Z,14.88
2023-04-16T14:02:32.262Z,13.15
2023-04-16T14:05:01.542Z,14.70
2023-04-16T14:07:29.223Z,13.88
2023-04-16T14:09:59.183Z,15.18
2023-04-16T14:12:27.643Z,14.73
2023-04-16T14:14:56.487Z,15.90
2023-04-16T14:17:25.493Z,16.17
2023-04-16T14:19:54.740Z,16.70
2023-04-16T14:22:22.525Z,15.30
2023-04-16T14:24:49.800Z,14.80
2023-04-16T14:27:17.277Z,14.93
2023-04-16T14:29:48.055Z,15.10
2023-04-16T14:32:15.339Z,16.08
2023-04-16T14:34:46.806Z,15.48
2023-04-16T14:37:17.934Z,17.45
2023-04-16T14:39:52.413Z,16.10
2023-04-16T14:42:22.438Z,16.40
2023-04-16T14:44:49.828Z,14.77
2023-04-16T14:47:20.164Z,16.63
2023-04-16T14:49:48.164Z,19.52
2023-04-16T14:52:19.781Z,17.75
2023-04-16T14:54:48.616Z,17.13
2023-04-16T14:57:17.150Z,16.38
2023-04-16T14:59:50.828Z,15.68
2023-04-16T15:02:20.061Z,17.00
2023-04-16T15:04:47.744Z,16.58
2023-04-16T15:07:15.172Z,17.35
2023-04-16T15:09:44.089Z,15.95
2023-04-16T15:12:15.314Z,14.98
2023-04-16T15:14:43.776Z,16.48
2023-04-16T15:17:15.422Z,17.60
2023-04-16T15:19:43.745Z,17.63
2023-04-16T15:22:16.011Z,15.10
2023-04-16T15:24:45.020Z,15.20
2023-04-16T15:27:14.190Z,14.98
2023-04-16T15:29:41.670Z,15.35
2023-04-16T15:32:09.611Z,16.77
2023-04-16T15:34:37.917Z,16.85
2023-04-16T15:37:05.319Z,17.75
2023-04-16T15:39:32.667Z,16.17
2023-04-16T15:42:02.273Z,17.10
2023-04-16T15:44:31.551Z,16.30
2023-04-16T15:47:00.232Z,15.88
2023-04-16T15:49:28.790Z,16.10
2023-04-16T15:51:58.588Z,15.98
2023-04-16T15:54:27.151Z,17.45
2023-04-16T15:56:56.601Z,17.98
2023-04-16T15:59:23.948Z,16.70
2023-04-16T16:01:52.792Z,17.17
2023-04-16T16:04:22.822Z,15.60
2023-04-16T16:06:51.114Z,13.35
2023-04-16T16:09:25.680Z,16.23
2023-04-16T16:11:55.493Z,17.15
2023-04-16T16:14:23.350Z,16.35
2023-04-16T16:16:51.749Z,14.73
2023-04-16T16:19:21.662Z,17.75
2023-04-16T16:21:49.472Z,18.25
2023-04-16T16:24:16.732Z,17.45
2023-04-16T16:26:45.628Z,18.17
2023-04-16T16:29:13.083Z,18.73
2023-04-16T16:31:42.052Z,16.67
2023-04-16T16:34:17.090Z,18.30
2023-04-16T16:36:47.961Z,19.52
2023-04-16T16:39:15.277Z,14.38
2023-04-16T16:41:48.216Z,17.08
2023-04-16T16:44:15.664Z,17.92
2023-04-16T16:46:44.095Z,16.40
2023-04-16T16:49:14.590Z,17.80
2023-04-16T16:51:42.408Z,17.25
2023-04-16T16:54:11.028Z,16.58
2023-04-16T16:56:38.429Z,16.55
2023-04-16T16:59:06.257Z,16.08
2023-04-16T17:01:33.820Z,15.15
2023-04-16T17:04:02.798Z,16.58
2023-04-16T17:06:30.457Z,17.35
2023-04-16T17:08:58.650Z,13.95
2023-04-16T17:11:27.214Z,13.73
2023-04-16T17:13:55.938Z,12.15
2023-04-16T17:16:24.540Z,15.75
2023-04-16T17:18:53.008Z,15.73
2023-04-16T17:21:21.643Z,15.57
2023-04-16T17:23:52.066Z,15.93
2023-04-16T17:26:19.282Z,14.88
2023-04-16T17:28:54.405Z,16.38
2023-04-16T17:31:23.127Z,12.57
2023-04-16T17:33:51.195Z,15.25
2023-04-16T17:36:23.018Z,12.63
2023-04-16T17:38:50.616Z,15.85
2023-04-16T17:41:18.161Z,15.15
2023-04-16T17:43:50.116Z,16.65
2023-04-16T17:46:17.516Z,14.50
2023-04-16T17:48:47.939Z,14.25
2023-04-16T17:51:16.604Z,16.40
2023-04-16T17:53:45.373Z,15.27
2023-04-16T17:56:14.556Z,16.02
2023-04-16T17:58:43.340Z,14.50
2023-04-16T18:01:11.362Z,15.60
2023-04-16T18:03:40.244Z,14.63
2023-04-16T18:06:07.773Z,17.77
2023-04-16T18:08:36.935Z,13.98
2023-04-16T18:11:08.813Z,14.65
2023-04-16T18:13:38.220Z,17.52
2023-04-16T18:16:07.478Z,15.80
2023-04-16T18:18:34.878Z,15.70
2023-04-16T18:21:03.128Z,14.75
2023-04-16T18:23:31.666Z,15.63
2023-04-16T18:25:58.929Z,13.90
2023-04-16T18:28:27.686Z,14.93
2023-04-16T18:30:58.751Z,15.38
2023-04-16T18:33:52.273Z,14.50
2023-04-16T18:36:13.971Z,14.70
2023-04-16T18:38:56.917Z,15.63
2023-04-16T18:41:27.192Z,15.88
2023-04-16T18:43:56.976Z,15.75
2023-04-16T18:46:25.153Z,14.88
2023-04-16T18:48:53.337Z,16.90
2023-04-16T18:51:21.312Z,17.17
2023-04-16T18:53:48.789Z,14.10
2023-04-16T18:56:16.109Z,15.82
2023-04-16T18:58:43.979Z,20.67
2023-04-16T19:01:21.191Z,15.05
2023-04-16T19:03:48.664Z,15.77
2023-04-16T19:06:17.800Z,16.77
2023-04-16T19:08:45.183Z,16.25
2023-04-16T19:11:14.236Z,18.02
2023-04-16T19:13:43.421Z,18.55
2023-04-16T19:16:12.594Z,17.65
2023-04-16T19:18:41.065Z,16.58
2023-04-16T19:21:10.869Z,18.42
2023-04-16T19:23:38.990Z,17.92
2023-04-16T19:26:07.501Z,18.58
2023-04-16T19:28:34.860Z,15.05
2023-04-16T19:31:04.229Z,15.80
2023-04-16T19:33:33.199Z,18.85
2023-04-16T19:36:01.727Z,16.25
2023-04-16T19:38:31.839Z,18.88
2023-04-16T19:40:59.108Z,20.83
2023-04-16T19:43:28.003Z,17.85
2023-04-16T19:45:57.568Z,17.67
2023-04-16T19:48:24.965Z,16.02
2023-04-16T19:50:52.246Z,18.45
2023-04-16T19:53:21.834Z,20.77
2023-04-16T19:55:50.739Z,16.67
2023-04-16T19:58:19.018Z,17.83
2023-04-16T20:00:47.276Z,22.75
2023-04-16T20:03:14.634Z,21.65
2023-04-16T20:05:42.024Z,19.65
2023-04-16T20:08:10.382Z,20.90
2023-04-16T20:10:37.672Z,21.17
2023-04-16T20:13:06.592Z,19.70
2023-04-16T20:15:37.941Z,18.40
2023-04-16T20:18:08.731Z,17.30
2023-04-16T20:20:37.897Z,19.98
2023-04-16T20:23:05.706Z,19.52
2023-04-16T20:25:32.966Z,18.35
2023-04-16T20:28:00.337Z,18.95
2023-04-16T20:30:29.436Z,15.45
2023-04-16T20:32:57.300Z,20.00
2023-04-16T20:35:24.614Z,14.70
2023-04-16T20:37:53.337Z,20.77
2023-04-16T20:40:22.504Z,21.95
2023-04-16T20:42:52.098Z,22.23
2023-04-16T20:45:20.963Z,20.75
2023-04-16T20:47:48.272Z,20.15
2023-04-16T20:50:15.883Z,17.60
2023-04-16T20:52:43.216Z,20.83
2023-04-16T20:55:10.836Z,15.77
2023-04-16T20:57:38.099Z,21.02
2023-04-16T21:00:10.083Z,22.42
2023-04-16T21:02:37.899Z,22.88
2023-04-16T21:05:09.001Z,23.90
2023-04-16T21:07:36.305Z,22.58
2023-04-16T21:10:03.791Z,27.35
2023-04-16T21:12:31.309Z,21.42
2023-04-16T21:14:58.546Z,24.20
2023-04-16T21:17:25.760Z,23.27
2023-04-16T21:19:53.132Z,24.08
2023-04-16T21:22:22.034Z,22.88
2023-04-16T21:24:49.745Z,19.88
2023-04-16T21:27:17.042Z,23.30
2023-04-16T21:29:44.282Z,23.38
2023-04-16T21:32:12.028Z,24.08
2023-04-16T21:34:39.254Z,20.63
2023-04-16T21:37:08.520Z,22.95
2023-04-16T21:39:36.006Z,25.45
2023-04-16T21:42:03.299Z,24.60
2023-04-16T21:44:30.648Z,24.60
2023-04-16T21:46:58.059Z,21.10
2023-04-16T21:49:25.835Z,22.95
2023-04-16T21:51:59.018Z,22.25
2023-04-16T21:54:27.518Z,22.55
2023-04-16T21:56:57.070Z,19.25
2023-04-16T21:59:24.307Z,22.17
2023-04-16T22:01:51.647Z,21.67
2023-04-16T22:04:18.997Z,23.50
2023-04-16T22:06:46.323Z,20.48
2023-04-16T22:09:13.664Z,25.50
2023-04-16T22:11:41.097Z,24.73
2023-04-16T22:14:08.813Z,23.73
2023-04-16T22:16:37.025Z,23.90
2023-04-16T22:19:04.334Z,23.98
2023-04-16T22:21:31.738Z,24.95
2023-04-16T22:23:59.212Z,22.85
2023-04-16T22:26:26.568Z,22.17
2023-04-16T22:28:53.790Z,25.20
2023-04-16T22:31:21.138Z,25.63
2023-04-16T22:33:48.462Z,25.38
2023-04-16T22:36:16.014Z,23.85
2023-04-16T22:38:44.308Z,25.73
2023-04-16T22:41:12.053Z,22.92
2023-04-16T22:43:39.491Z,26.02
2023-04-16T22:46:07.982Z,25.73
2023-04-16T22:48:38.156Z,27.27
2023-04-16T22:51:08.671Z,23.80
2023-04-16T22:53:39.125Z,24.35
2023-04-16T22:56:07.762Z,27.02
2023-04-16T22:58:35.141Z,21.83
2023-04-16T23:01:02.465Z,24.48
2023-04-16T23:03:30.641Z,24.48
2023-04-16T23:05:58.060Z,25.25
2023-04-16T23:08:25.357Z,26.92
2023-04-16T23:10:54.565Z,24.33
2023-04-16T23:13:22.249Z,26.73
2023-04-16T23:15:51.048Z,26.77
2023-04-16T23:18:18.383Z,21.48
2023-04-16T23:20:45.787Z,23.60
2023-04-16T23:23:13.258Z,25.80
2023-04-16T23:25:42.065Z,23.30
2023-04-16T23:28:09.705Z,23.85
2023-04-16T23:30:38.078Z,24.23
2023-04-16T23:33:05.497Z,22.60
2023-04-16T23:35:32.821Z,23.45
2023-04-16T23:38:03.065Z,25.00
2023-04-16T23:40:30.854Z,25.67
2023-04-16T23:42:58.067Z,26.73
2023-04-16T23:45:25.840Z,23.88
2023-04-16T23:47:53.162Z,23.98
2023-04-16T23:50:22.366Z,23.50
2023-04-16T23:52:49.903Z,23.50
2023-04-16T23:55:17.263Z,26.13
2023-04-16T23:57:44.509Z,26.83
